M I D A S
Marine Information and Data Acquisition System
Tripno 767 of the Zeeleeuw from 2004-08-25 06:24:38 to 2004-08-25 13:28:47
Back to CruiseResearch ActivitiesStationsMapUnderway DataData graphs

EquipmentUnitsComment
TimeDGPSUTC
LatitudeDGPSDM.mWGS84
LongitudeDGPSDM.mWGS84
HeadingGyrodeg 
SOGDGPSknotsSpeed over ground
COGDGPSdegCourse over ground
DepthEcho soundermeters200 kHz
Missing or incorrect values are displayed as -999
Navigation data collected by the RV Zeeleeuw from 2004-08-25 06:24:38 to 2004-08-25 13:28:47
Time Latitude Longitude Heading SOG COG Depth
2004-08-25 06:25:41 51°13.595 2°56.114 128.1 0.1 55 10.7
2004-08-25 06:26:42 51°13.595 2°56.113 115.4 0.4 295 10.8
2004-08-25 06:27:43 51°13.611 2°56.056 107.8 2.9 286 -999
2004-08-25 06:28:43 51°13.618 2°56.042 120.4 2.4 302 -999
2004-08-25 06:29:43 51°13.647 2°55.959 121 4.4 299 -999
2004-08-25 06:30:43 51°13.671 2°55.844 95.5 4.3 276 -999
2004-08-25 06:31:42 51°13.67 2°55.761 67.4 0.7 301 13.3
2004-08-25 06:32:47 51°13.733 2°55.727 327.8 6 323 12.6
2004-08-25 06:33:46 51°13.843 2°55.617 337.8 9 334 13.5
2004-08-25 06:34:46 51°13.985 2°55.515 341.1 9.6 336 14.5
2004-08-25 06:35:46 51°14.136 2°55.409 340.9 10.6 334 14.1
2004-08-25 06:36:46 51°14.285 2°55.228 317.6 11.9 311 13.8
2004-08-25 06:37:46 51°14.418 2°54.985 317.6 12.3 320 13.5
2004-08-25 06:38:47 51°14.585 2°54.761 321.3 13.3 321 12.5
2004-08-25 06:39:46 51°14.76 2°54.552 323.2 13.4 323 12.3
2004-08-25 06:40:46 51°14.942 2°54.347 326.6 13.3 327 11.4
2004-08-25 06:41:47 51°15.133 2°54.148 327.8 13.6 327 11.6
2004-08-25 06:42:46 51°15.323 2°53.963 330.2 13.7 331 12.3
2004-08-25 06:43:47 51°15.523 2°53.781 331 13.5 331 12.9
2004-08-25 06:44:45 51°15.713 2°53.608 332.2 13.6 333 13.8
2004-08-25 06:45:46 51°15.924 2°53.455 336.8 13.8 337 14.4
2004-08-25 06:46:47 51°16.135 2°53.303 336.1 13.7 338 14.8
2004-08-25 06:47:46 51°16.346 2°53.178 338.6 13.8 339 14.9
2004-08-25 06:48:47 51°16.563 2°53.045 338.1 13.7 338 14.5
2004-08-25 06:49:46 51°16.77 2°52.911 337.6 13.6 338 13
2004-08-25 06:50:45 51°16.975 2°52.777 337.8 13.6 338 12.1
2004-08-25 06:51:45 51°17.187 2°52.641 338.5 13.6 337 12.2
2004-08-25 06:52:46 51°17.393 2°52.48 327.7 13.5 328 13
2004-08-25 06:53:45 51°17.541 2°52.24 304.8 12.8 305 12.9
2004-08-25 06:54:47 51°17.665 2°51.943 302.4 13 304 12.6
2004-08-25 06:55:46 51°17.787 2°51.659 303.7 13.2 304 12.5
2004-08-25 06:56:46 51°17.91 2°51.367 304.3 13.1 303 13.1
2004-08-25 06:57:45 51°18.034 2°51.085 305.4 13.2 306 14.7
2004-08-25 06:58:47 51°18.165 2°50.788 304.4 13.3 304 15.9
2004-08-25 06:59:46 51°18.286 2°50.504 303 13.2 303 16.6
2004-08-25 07:00:47 51°18.405 2°50.204 301.6 13.2 301 16.8
2004-08-25 07:01:46 51°18.519 2°49.914 301.8 13 303 16
2004-08-25 07:02:46 51°18.632 2°49.618 301.8 13 301 14.2
2004-08-25 07:03:50 51°18.754 2°49.306 301.7 13 302 13.2
2004-08-25 07:04:50 51°18.871 2°49.014 302.3 13.1 302 14.4
2004-08-25 07:05:50 51°18.989 2°48.724 302 13 303 17
2004-08-25 07:06:57 51°19.11 2°48.395 294.3 12.8 296 18.9
2004-08-25 07:07:58 51°19.204 2°48.085 293.6 12.8 295 20.9
2004-08-25 07:09:01 51°19.303 2°47.763 294.5 12.8 295 22.9
2004-08-25 07:10:00 51°19.395 2°47.462 294.6 13 296 23.9
2004-08-25 07:11:01 51°19.471 2°47.141 288.1 12.8 289 24
2004-08-25 07:12:09 51°19.548 2°46.776 288.8 12.8 289 24
2004-08-25 07:13:08 51°19.619 2°46.465 289.4 12.6 289 21.4
2004-08-25 07:14:09 51°19.686 2°46.141 288.2 12.7 288 18.4
2004-08-25 07:15:08 51°19.754 2°45.831 288.6 12.5 289 15.4
2004-08-25 07:16:09 51°19.812 2°45.511 284.8 12.4 286 16.9
2004-08-25 07:17:06 51°19.864 2°45.209 280.2 12.4 281 23.7
2004-08-25 07:18:08 51°19.903 2°44.874 278.1 12.4 280 25.3
2004-08-25 07:19:14 51°19.942 2°44.516 278.4 12.5 280 27
2004-08-25 07:20:15 51°19.98 2°44.183 278.9 12.6 280 28.2
2004-08-25 07:21:25 51°20.022 2°43.802 279.5 12.6 280 27.5
2004-08-25 07:22:25 51°20.058 2°43.473 279.3 12.5 280 29
2004-08-25 07:23:25 51°20.094 2°43.147 279.4 12.6 279 29
2004-08-25 07:24:25 51°20.13 2°42.824 279.2 12.5 280 28.1
2004-08-25 07:25:25 51°20.167 2°42.499 279.4 12.4 281 26.4
2004-08-25 07:26:26 51°20.204 2°42.169 278.6 12.3 280 21.8
2004-08-25 07:27:26 51°20.239 2°41.845 279.4 12.3 281 20.5
2004-08-25 07:28:25 51°20.275 2°41.533 279.5 12.2 280 24.2
2004-08-25 07:29:26 51°20.313 2°41.209 279.4 12.2 281 23.1
2004-08-25 07:30:26 51°20.35 2°40.887 279 12.4 279 30.7
2004-08-25 07:31:26 51°20.388 2°40.565 279.6 12.2 281 31
2004-08-25 07:32:25 51°20.425 2°40.249 279.4 12.3 281 29.7
2004-08-25 07:33:25 51°20.462 2°39.923 279.8 12.5 281 29.6
2004-08-25 07:34:25 51°20.499 2°39.598 279.3 12.2 279 28.7
2004-08-25 07:35:34 51°20.538 2°39.223 279.1 12.5 280 27.2
2004-08-25 07:36:33 51°20.574 2°38.9 279.7 12.5 281 27.5
2004-08-25 07:37:34 51°20.61 2°38.569 278.8 12.5 281 26.7
2004-08-25 07:38:33 51°20.641 2°38.245 278.7 12.6 280 24.9
2004-08-25 07:39:34 51°20.677 2°37.915 279.2 12.4 281 24.5
2004-08-25 07:40:37 51°20.714 2°37.573 279.1 12.5 281 26.1
2004-08-25 07:41:37 51°20.749 2°37.246 278.1 12.6 279 25.7
2004-08-25 07:42:37 51°20.784 2°36.92 279.2 12.4 280 24.4
2004-08-25 07:43:37 51°20.821 2°36.597 279.6 12.3 280 25
2004-08-25 07:44:37 51°20.859 2°36.273 279.9 12.1 280 26.6
2004-08-25 07:45:42 51°20.899 2°35.924 278.9 12.4 280 29
2004-08-25 07:46:42 51°20.939 2°35.598 279.4 12.5 282 32.6
2004-08-25 07:47:42 51°20.982 2°35.275 279.4 12.5 283 32.1
2004-08-25 07:48:46 51°21.028 2°34.931 278.9 12.4 282 34.1
2004-08-25 07:49:45 51°21.07 2°34.616 279.5 12.3 282 33.6
2004-08-25 07:50:46 51°21.109 2°34.294 279.3 12.1 281 32.9
2004-08-25 07:51:45 51°21.148 2°33.975 279.6 12.5 280 33.3
2004-08-25 07:52:46 51°21.211 2°33.656 299.4 12.7 306 35.1
2004-08-25 07:53:46 51°21.376 2°33.434 330.2 13.3 336 32.1
2004-08-25 07:54:46 51°21.599 2°33.355 348.8 14.2 350 28.1
2004-08-25 07:55:46 51°21.825 2°33.276 347.1 13.8 349 25.6
2004-08-25 07:56:46 51°22.051 2°33.203 347.1 13.4 348 29.6
2004-08-25 07:57:47 51°22.23 2°32.997 313.7 13 314 33.2
2004-08-25 07:58:45 51°22.345 2°32.726 296.2 12.6 298 32.9
2004-08-25 07:59:46 51°22.39 2°32.399 275.2 12.4 275 34.3
2004-08-25 08:00:47 51°22.412 2°32.069 274.9 11.9 275 33.1
2004-08-25 08:01:53 51°22.423 2°31.716 272.6 12 272 33.2
2004-08-25 08:02:53 51°22.437 2°31.394 273.7 12 273 33.1
2004-08-25 08:03:54 51°22.453 2°31.066 274 12.1 275 33
2004-08-25 08:04:53 51°22.464 2°30.751 271.8 12.1 273 33.2
2004-08-25 08:05:53 51°22.473 2°30.429 272.3 12.2 272 33.6
2004-08-25 08:06:53 51°22.486 2°30.109 271.6 12.1 274 33.5
2004-08-25 08:07:57 51°22.5 2°29.769 272 12.2 273 35.3
2004-08-25 08:08:57 51°22.511 2°29.442 272.2 12.4 273 35.4
2004-08-25 08:10:03 51°22.527 2°29.089 273 11.7 274 35.2
2004-08-25 08:11:03 51°22.539 2°28.765 273.2 12.4 275 35.6
2004-08-25 08:12:03 51°22.551 2°28.44 273.6 12.3 275 35.5
2004-08-25 08:13:01 51°22.573 2°28.123 274.3 12.5 275 35.1
2004-08-25 08:14:11 51°22.599 2°27.741 275.2 12.5 276 36.3
2004-08-25 08:15:11 51°22.621 2°27.412 276.4 12.3 276 36.5
2004-08-25 08:16:17 51°22.645 2°27.048 274.7 12.6 276 35.7
2004-08-25 08:17:23 51°22.67 2°26.689 275.2 12.1 276 34.7
2004-08-25 08:18:23 51°22.698 2°26.366 284.6 12.5 289 33.3
2004-08-25 08:19:29 51°22.802 2°26.031 295.4 12.8 298 24.8
2004-08-25 08:20:29 51°22.917 2°25.75 313.3 13 317 21.5
2004-08-25 08:21:29 51°23.129 2°25.62 348.5 14 352 30.9
2004-08-25 08:22:29 51°23.37 2°25.635 4.2 15 6 34.2
2004-08-25 08:23:29 51°23.614 2°25.66 4.9 15 1 34.6
2004-08-25 08:24:33 51°23.871 2°25.694 5.1 14.4 7 35.1
2004-08-25 08:25:33 51°24.112 2°25.718 7 14.4 3 35.3
2004-08-25 08:26:34 51°24.356 2°25.751 6 14.4 6 35.5
2004-08-25 08:27:33 51°24.593 2°25.769 4.5 14.8 1 36.9
2004-08-25 08:28:39 51°24.858 2°25.8 6.4 14.7 7 36.6
2004-08-25 08:29:39 51°25.099 2°25.819 4.6 14.5   36.5
2004-08-25 08:30:38 51°25.338 2°25.847 4 14.3 6 36.1
2004-08-25 08:31:37 51°25.575 2°25.884 4.9 14.5 2 37.2
2004-08-25 08:32:38 51°25.822 2°25.917 7.1 14.3 6 37.2
2004-08-25 08:33:41 51°26.072 2°25.968 9.5 14.5 9 30.9
2004-08-25 08:34:41 51°26.311 2°26.023 11 14.3 12 27.5
2004-08-25 08:35:43 51°26.558 2°26.073 10.1 14.3 7 26
2004-08-25 08:36:43 51°26.799 2°26.126 10.7 15.3 11 28
2004-08-25 08:37:41 51°27.031 2°26.198 15.9 14.6 7 32.8
2004-08-25 08:38:41 51°27.273 2°26.269 9.1 14.6 18 35.5
2004-08-25 08:39:41 51°27.515 2°26.346 11.4 14.3 8 35.4
2004-08-25 08:40:44 51°27.767 2°26.426 13.7 15 13 35.7
2004-08-25 08:41:41 51°27.993 2°26.492 12.5 14.8 13 36.1
2004-08-25 08:42:41 51°28.234 2°26.567 15 14.5 11 36.8
2004-08-25 08:43:43 51°28.482 2°26.641 13.4 14.8 15 37.1
2004-08-25 08:44:50 51°28.695 2°26.704 4.6 7.5 4 36.7
2004-08-25 08:45:51 51°28.775 2°26.716 356.3 3.4 10 36.3
2004-08-25 08:46:48 51°28.804 2°26.742 6.3 1.2 62 36.3
2004-08-25 08:47:51 51°28.818 2°26.775 22.5 1.5 50 -999
2004-08-25 08:48:51 51°28.839 2°26.81 29 2 45 -999
2004-08-25 08:49:49 51°28.864 2°26.844 27 2 40 36.4
2004-08-25 08:50:50 51°28.891 2°26.879 23.6 2.1 39 36.9
2004-08-25 08:51:53 51°28.919 2°26.913 19.8 2 35 37
2004-08-25 08:52:53 51°28.946 2°26.946 17.2 2 38 36.8
2004-08-25 08:53:58 51°28.979 2°26.982 13.9 3 24 35.8
2004-08-25 08:54:59 51°29.142 2°27.033 10.5 14.1 8 36.4
2004-08-25 08:55:59 51°29.38 2°27.064 4.8 14.5 5 34.9
2004-08-25 08:57:04 51°29.642 2°27.073 2.9 14.6 1 32.3
2004-08-25 08:58:03 51°29.876 2°27.074 3.5 14.5 2 31.6
2004-08-25 08:59:02 51°30.112 2°27.079 2.8 14.6 358 31.6
2004-08-25 09:00:03 51°30.357 2°27.086 1.8 14.4 1 30.7
2004-08-25 09:01:09 51°30.621 2°27.099 1.8 14.4 8 32.4
2004-08-25 09:02:09 51°30.862 2°27.099 1.4 14.3 357 31.1
2004-08-25 09:03:09 51°31.101 2°27.115 3.9 14.6 7 34.4
2004-08-25 09:04:09 51°31.341 2°27.125 2.2 14.2 2 38
2004-08-25 09:05:09 51°31.58 2°27.144 5.1 14.8 3 40.7
2004-08-25 09:06:10 51°31.827 2°27.171 5.9 15 6 41.3
2004-08-25 09:07:09 51°32.063 2°27.199 6.3 14.5 359 41.4
2004-08-25 09:08:11 51°32.31 2°27.232 6.9 14.4 5 40.5
2004-08-25 09:09:14 51°32.563 2°27.26 9.7 14.6 4 40
2004-08-25 09:10:13 51°32.796 2°27.315 9.5 14.2 9 39
2004-08-25 09:11:13 51°33.03 2°27.401 17.7 14.8 16 37.9
2004-08-25 09:12:14 51°33.267 2°27.515 18.1 14.6 18 39
2004-08-25 09:13:14 51°33.499 2°27.629 19.5 14.3 15 40.1
2004-08-25 09:14:14 51°33.727 2°27.752 19.9 14.7 23 36.9
2004-08-25 09:15:14 51°33.955 2°27.871 23.1 14.4 16 34.3
2004-08-25 09:16:22 51°34.211 2°28.014 21.5 14.7 21 37.4
2004-08-25 09:17:24 51°34.45 2°28.139 21.1 15.1 17 35.4
2004-08-25 09:18:21 51°34.671 2°28.257 19.6 15.1 16 36.5
2004-08-25 09:19:29 51°34.932 2°28.396 20.6 14.8 18 36.5
2004-08-25 09:20:29 51°35.16 2°28.532 24.5 14.6 24 36.1
2004-08-25 09:21:29 51°35.382 2°28.687 27.2 14.6 23 30.9
2004-08-25 09:22:29 51°35.602 2°28.851 33.7 14.4 30 37.6
2004-08-25 09:23:27 51°35.803 2°29.04 34.7 14.9 31 34.5
2004-08-25 09:24:29 51°36.024 2°29.238 32.4 14.3 29 34.9
2004-08-25 09:25:29 51°36.225 2°29.454 37.8 14.4 35 31
2004-08-25 09:26:28 51°36.419 2°29.674 36 14.8 35 36.6
2004-08-25 09:27:28 51°36.629 2°29.882 31.9 15.3 29 37.3
2004-08-25 09:28:33 51°36.847 2°30.117 38.9 15.1 34 37.1
2004-08-25 09:29:39 51°37.073 2°30.351 34.4 14.6 34 36.3
2004-08-25 09:30:39 51°37.278 2°30.566 37.7 14.8 34 38.3
2004-08-25 09:31:42 51°37.494 2°30.785 35.8 15.3 33 39.3
2004-08-25 09:32:48 51°37.718 2°31.014 37.7 14.5 35 38.5
2004-08-25 09:33:49 51°37.923 2°31.237 40.3 14.9 36 38.7
2004-08-25 09:34:49 51°38.119 2°31.462 39.5 14.1 37 39.2
2004-08-25 09:35:49 51°38.312 2°31.689 41.8 14.2 38 41.7
2004-08-25 09:36:53 51°38.519 2°31.928 38.4 14.2 33 41.6
2004-08-25 09:37:59 51°38.731 2°32.182 40.1 14.4 34 40.5
2004-08-25 09:38:58 51°38.928 2°32.402 38.5 14.3 36 42
2004-08-25 09:39:59 51°39.131 2°32.628 40.1 14.2 38 42.2
2004-08-25 09:40:57 51°39.322 2°32.851 39.7 15 37 39.8
2004-08-25 09:42:01 51°39.53 2°33.107 42.7 14.9 40 41.5
2004-08-25 09:43:02 51°39.727 2°33.348 42.3 15 38 42.9
2004-08-25 09:44:03 51°39.925 2°33.585 39.2 14.8 36 43.8
2004-08-25 09:45:09 51°40.142 2°33.844 41.7 14.8 37 41.5
2004-08-25 09:46:06 51°40.331 2°34.068 41 15.1 37 40.2
2004-08-25 09:47:18 51°40.571 2°34.345 41.2 15.6 35 37.7
2004-08-25 09:48:19 51°40.773 2°34.584 41.3 14.3 36 37.8
2004-08-25 09:49:24 51°40.988 2°34.839 41.9 15 39 35.6
2004-08-25 09:50:22 51°41.177 2°35.064 40 14.9 35 37
2004-08-25 09:51:29 51°41.393 2°35.326 42.7 14.5 37 35.6
2004-08-25 09:52:30 51°41.591 2°35.558 40 14.8 35 33.1
2004-08-25 09:53:33 51°41.799 2°35.808 42.8 15.1 36 31.3
2004-08-25 09:54:38 51°42.009 2°36.064 40.7 14.4 38 32.3
2004-08-25 09:55:44 51°42.219 2°36.325 43.2 14.1 36 30.5
2004-08-25 09:56:41 51°42.403 2°36.547 41 14.7 36 32.6
2004-08-25 09:57:49 51°42.621 2°36.809 39.9 14.4 39 30.4
2004-08-25 09:58:54 51°42.816 2°37.091 55.2 14.8 54 34.5
2004-08-25 09:59:54 51°42.875 2°37.45 93.8 13.7 92 35.2
2004-08-25 10:00:54 51°42.793 2°37.786 123.9 13.3 119 36.2
2004-08-25 10:01:54 51°42.676 2°38.095 129.9 13.4 122 36.4
2004-08-25 10:02:54 51°42.554 2°38.398 130.6 13.5 123 38.6
2004-08-25 10:03:54 51°42.434 2°38.701 129.5 13.7 122 39.2
2004-08-25 10:04:53 51°42.317 2°39.001 129.2 13.5 122 38.7
2004-08-25 10:05:54 51°42.197 2°39.309 131.7 13.3 123 40.8
2004-08-25 10:06:54 51°42.078 2°39.611 129.9 13.2 122 39.7
2004-08-25 10:07:54 51°41.957 2°39.909 130.6 13.1 124 44.1
2004-08-25 10:08:54 51°41.836 2°40.211 131.3 13.6 120 39.6
2004-08-25 10:09:54 51°41.714 2°40.515 129.7 13.6 121 42.7
2004-08-25 10:10:54 51°41.589 2°40.816 130.6 13.5 124 36.3
2004-08-25 10:11:54 51°41.472 2°41.124 128.4 13.3 121 33.8
2004-08-25 10:12:54 51°41.354 2°41.43 129.6 13.5 121 36.6
2004-08-25 10:13:54 51°41.229 2°41.728 131.1 13.3 128 37
2004-08-25 10:14:54 51°41.103 2°42.028 132 13.5 126 32.7
2004-08-25 10:15:54 51°40.983 2°42.334 129.4 13.5 120 34.2
2004-08-25 10:16:54 51°40.859 2°42.638 129.1 13.5 124 31.1
2004-08-25 10:17:54 51°40.739 2°42.94 127.4 13.5 126 34.7
2004-08-25 10:18:54 51°40.617 2°43.243 131.6 13.6 123 34.9
2004-08-25 10:19:54 51°40.491 2°43.543 130.2 13.2 125 36.3
2004-08-25 10:20:53 51°40.373 2°43.841 128.9 13.5 121 33.5
2004-08-25 10:21:54 51°40.247 2°44.148 130.9 13.4 124 38.2
2004-08-25 10:22:53 51°40.102 2°44.402 147.6 13.1 142 38.5
2004-08-25 10:23:53 51°39.926 2°44.615 150.6 13.3 145 39.6
2004-08-25 10:24:54 51°39.744 2°44.816 157.6 13 155 40
2004-08-25 10:25:54 51°39.538 2°44.897 177.8 12.8 172 35.5
2004-08-25 10:26:54 51°39.327 2°44.932 181.4 12.5 180 36.5
2004-08-25 10:27:54 51°39.12 2°44.908 188.8 12.6 184 31.9
2004-08-25 10:28:54 51°38.911 2°44.885 187.1 12.7 184 30.4
2004-08-25 10:29:54 51°38.708 2°44.807 202.2 12.6 198 30.4
2004-08-25 10:30:54 51°38.517 2°44.679 215.1 12.6 212 37.4
2004-08-25 10:31:54 51°38.354 2°44.477 219.9 12.6 217 35
2004-08-25 10:32:54 51°38.222 2°44.222 235.5 12.4 235 33.3
2004-08-25 10:33:54 51°38.139 2°43.921 258.9 12.5 262 33.5
2004-08-25 10:34:54 51°38.157 2°43.577 276.5 13.1 277 36
2004-08-25 10:35:53 51°38.161 2°43.236 269.2 13.1 268 36.5
2004-08-25 10:36:53 51°38.153 2°42.891 267.8 13.1 266 37.3
2004-08-25 10:37:54 51°38.143 2°42.542 268.2 13 267 36.6
2004-08-25 10:38:58 51°38.13 2°42.175 267 12.8 266 34.7
2004-08-25 10:39:59 51°38.117 2°41.823 267 13 267 26.2
2004-08-25 10:40:58 51°38.103 2°41.487 266.4 12.9 266 19.7
2004-08-25 10:41:57 51°38.091 2°41.147 266.5 13 266 26.6
2004-08-25 10:42:57 51°38.06 2°40.808 252 12.7 251 24.2
2004-08-25 10:43:58 51°37.973 2°40.496 240.6 12.8 241 28.1
2004-08-25 10:44:58 51°37.841 2°40.235 225.7 12.6 223 32
2004-08-25 10:45:57 51°37.672 2°40.057 206.7 12.5 204 33.7
2004-08-25 10:46:57 51°37.478 2°39.938 202.1 12.6 201 34.2
2004-08-25 10:47:57 51°37.283 2°39.816 202.1 12.4 200 35
2004-08-25 10:48:57 51°37.089 2°39.699 202.3 12.6 201 35.9
2004-08-25 10:49:58 51°36.892 2°39.577 203.1 12.6 201 35.3
2004-08-25 10:50:58 51°36.696 2°39.459 200.3 12.5 199 35.3
2004-08-25 10:51:58 51°36.499 2°39.35 200.3 12.2 199 35.3
2004-08-25 10:52:58 51°36.302 2°39.234 200.4 12.6 200 35.5
2004-08-25 10:54:00 51°36.095 2°39.118 201 12.6 200 36
2004-08-25 10:55:00 51°35.894 2°39.008 198.2 12.7 197 36.2
2004-08-25 10:56:00 51°35.692 2°38.918 197.1 12.6 195 36.4
2004-08-25 10:56:57 51°35.5 2°38.828 198.4 12.6 196 37.4
2004-08-25 10:57:58 51°35.292 2°38.742 194.5 12.7 192 38.2
2004-08-25 10:58:58 51°35.086 2°38.668 195.2 12.7 191 37.5
2004-08-25 11:00:00 51°34.875 2°38.596 193.9 12.6 189 37.2
2004-08-25 11:01:03 51°34.659 2°38.674 162.5 12.9 157 35.5
2004-08-25 11:02:03 51°34.486 2°38.884 142.2 13.3 141 32.3
2004-08-25 11:03:02 51°34.326 2°39.12 140.7 13.2 139 28
2004-08-25 11:04:07 51°34.151 2°39.376 140.3 13.3 141 22.9
2004-08-25 11:05:07 51°33.986 2°39.609 140.8 13.2 137 16.7
2004-08-25 11:06:06 51°33.822 2°39.83 142.5 13.2 138 22.2
2004-08-25 11:07:06 51°33.656 2°40.069 142.5 13.4 144 36.5
2004-08-25 11:08:05 51°33.458 2°40.202 167.4 13.1 166 40.6
2004-08-25 11:09:06 51°33.242 2°40.22 187.8 12.8 187 40.9
2004-08-25 11:10:05 51°33.033 2°40.16 192.8 13.1 191 39.5
2004-08-25 11:11:06 51°32.816 2°40.103 191.1 13.1 188 39.1
2004-08-25 11:12:07 51°32.601 2°40.044 193 13 192 38
2004-08-25 11:13:05 51°32.396 2°39.983 192.3 12.9 189 39.4
2004-08-25 11:14:12 51°32.159 2°39.913 193.6 13 191 38.3
2004-08-25 11:15:16 51°31.933 2°39.847 192 12.9 190 38.3
2004-08-25 11:16:15 51°31.724 2°39.791 191.8 13.1 188 38.2
2004-08-25 11:17:16 51°31.508 2°39.731 192.3 12.9 191 36.7
2004-08-25 11:18:16 51°31.295 2°39.673 191.8 12.9 189 34.9
2004-08-25 11:19:15 51°31.099 2°39.562 207.1 12.5 207 38.8
2004-08-25 11:20:16 51°30.913 2°39.383 213.3 13 212 38.3
2004-08-25 11:21:15 51°30.764 2°39.147 231.2 12.9 230 36.7
2004-08-25 11:22:15 51°30.621 2°38.889 230.1 12.8 228 37.8
2004-08-25 11:23:15 51°30.476 2°38.634 229 12.9 227 38
2004-08-25 11:24:17 51°30.325 2°38.373 229 13 227 37.9
2004-08-25 11:25:21 51°30.165 2°38.105 229.3 13 226 37.1
2004-08-25 11:26:22 51°30.012 2°37.851 228.9 13 225 36
2004-08-25 11:27:22 51°29.86 2°37.601 228.6 13.1 226 32
2004-08-25 11:28:20 51°29.713 2°37.358 227.9 13 226 26.6
2004-08-25 11:29:23 51°29.555 2°37.092 228.7 13.1 227 27.1
2004-08-25 11:30:23 51°29.405 2°36.839 228.2 13 227 26.8
2004-08-25 11:31:23 51°29.255 2°36.587 228.3 13 227 29
2004-08-25 11:32:23 51°29.085 2°36.383 204.7 12.9 200 26
2004-08-25 11:33:27 51°28.863 2°36.273 198.2 13 196 27.2
2004-08-25 11:34:27 51°28.655 2°36.172 199.7 13.3 197 29.2
2004-08-25 11:35:27 51°28.445 2°36.068 200.3 13.3 198 28.5
2004-08-25 11:36:26 51°28.237 2°36.038 175.5 13.1 171 27.7
2004-08-25 11:37:27 51°28.017 2°36.116 163.4 13.3 160 29.2
2004-08-25 11:38:27 51°27.819 2°36.286 149.8 13.6 148 33.1
2004-08-25 11:39:33 51°27.611 2°36.505 149.5 13.6 148 34
2004-08-25 11:40:33 51°27.421 2°36.7 150.9 13.4 148 32.7
2004-08-25 11:41:33 51°27.232 2°36.894 150.5 13.5 147 32.7
2004-08-25 11:42:32 51°27.046 2°37.08 149.9 13.5 147 32.4
2004-08-25 11:43:33 51°26.852 2°37.273 152.3 13.5 149 32.5
2004-08-25 11:44:33 51°26.663 2°37.464 151 13.7 149 34.3
2004-08-25 11:45:33 51°26.498 2°37.696 125.6 13.4 120 33
2004-08-25 11:46:33 51°26.395 2°38.019 120.5 13.7 119 32.7
2004-08-25 11:47:33 51°26.29 2°38.34 119 13.7 121 32.4
2004-08-25 11:48:32 51°26.191 2°38.658 121.2 13.5 121 33.8
2004-08-25 11:49:33 51°26.079 2°38.977 128.3 13.4 127 38.2
2004-08-25 11:50:33 51°25.919 2°39.229 146.4 13.5 147 34.6
2004-08-25 11:51:32 51°25.718 2°39.369 164 13.7 162 31.8
2004-08-25 11:52:32 51°25.5 2°39.456 166.8 13.4 165 30.8
2004-08-25 11:53:33 51°25.277 2°39.523 173 13.4 170 29.4
2004-08-25 11:54:33 51°25.058 2°39.584 172.9 13.3 172 27.5
2004-08-25 11:55:33 51°24.835 2°39.615 183 13.2 182 26.9
2004-08-25 11:56:31 51°24.619 2°39.588 186 13.5 183 28.2
2004-08-25 11:57:31 51°24.394 2°39.568 184.8 13.6 182 26.5
2004-08-25 11:58:33 51°24.165 2°39.554 184.5 13.3 183 25.5
2004-08-25 11:59:33 51°23.944 2°39.535 185 13.3 183 25.7
2004-08-25 12:00:33 51°23.721 2°39.517 185.1 13.3 182 26.7
2004-08-25 12:01:33 51°23.498 2°39.501 183.8 13.5 181 29.4
2004-08-25 12:02:33 51°23.272 2°39.482 185.3 13.6 184 28.9
2004-08-25 12:03:33 51°23.047 2°39.458 184.9 13.7 184 30.1
2004-08-25 12:04:36 51°22.81 2°39.438 183.7 13.4 185 29.7
2004-08-25 12:05:34 51°22.593 2°39.441 175.4 13.3 173 29.9
2004-08-25 12:06:36 51°22.361 2°39.482 174.9 13.4 174 28.3
2004-08-25 12:07:35 51°22.141 2°39.521 175.5 13.6 174 27.6
2004-08-25 12:08:36 51°21.911 2°39.561 175.6 13.6 174 27.9
2004-08-25 12:09:44 51°21.656 2°39.604 175.3 13.6 175 26.6
2004-08-25 12:10:44 51°21.429 2°39.639 174.9 13.6 173 26.4
2004-08-25 12:11:43 51°21.208 2°39.677 174.9 13.4 173 26.1
2004-08-25 12:12:44 51°20.987 2°39.756 161.3 13.4 159 25
2004-08-25 12:13:46 51°20.786 2°39.937 147.9 13.2 141 26.2
2004-08-25 12:14:51 51°20.647 2°40.248 120.4 13.3 118 26.9
2004-08-25 12:15:50 51°20.549 2°40.56 111.5 13.3 109 27.2
2004-08-25 12:16:51 51°20.493 2°40.909 105 13.5 103 28.1
2004-08-25 12:17:52 51°20.44 2°41.263 105.9 13.4 103 22.2
2004-08-25 12:18:52 51°20.383 2°41.602 105.7 13.3 104 21.7
2004-08-25 12:19:55 51°20.321 2°41.957 108.8 13.2 108 17.3
2004-08-25 12:20:55 51°20.274 2°42.299 99.9 13.2 99 21.6
2004-08-25 12:21:55 51°20.243 2°42.649 100.7 13.4 100 23.5
2004-08-25 12:22:53 51°20.214 2°42.992 98.7 13.4 98 25.7
2004-08-25 12:23:55 51°20.184 2°43.352 99.1 13.2 98 26.3
2004-08-25 12:25:07 51°20.146 2°43.774 100.3 13.1 96 25.7
2004-08-25 12:26:06 51°20.115 2°44.117 102.1 13 99 23.5
2004-08-25 12:27:07 51°20.075 2°44.474 100.5 13.6 99 24.6
2004-08-25 12:28:09 51°20.038 2°44.832 99.4 12.9 99 23.8
2004-08-25 12:29:09 51°20.001 2°45.177 101.4 13.1 102 22.1
2004-08-25 12:30:10 51°19.96 2°45.529 100.6 12.9 101 16.8
2004-08-25 12:31:08 51°19.927 2°45.856 99.9 12.8 97 14.3
2004-08-25 12:32:10 51°19.842 2°46.181 119.9 13.4 120 13.4
2004-08-25 12:33:10 51°19.73 2°46.48 119.1 13.3 119 17.4
2004-08-25 12:34:10 51°19.616 2°46.783 120.1 13.2 122 20.4
2004-08-25 12:35:09 51°19.498 2°47.079 121.4 13.2 121 21.4
2004-08-25 12:36:10 51°19.382 2°47.387 121.8 13.3 123 21.3
2004-08-25 12:37:09 51°19.265 2°47.683 118.7 13.4 117 20.2
2004-08-25 12:38:09 51°19.148 2°47.985 121.9 13.4 122 18.2
2004-08-25 12:39:09 51°19.034 2°48.283 120.7 12.7 120 16.5
2004-08-25 12:40:09 51°18.92 2°48.581 121.3 13.3 123 13.7
2004-08-25 12:41:09 51°18.805 2°48.875 122 13.1 123 11.4
2004-08-25 12:42:09 51°18.685 2°49.164 121.3 13.1 121 11
2004-08-25 12:43:09 51°18.574 2°49.458 121.9 13.2 122 11.1
2004-08-25 12:44:09 51°18.458 2°49.757 120.6 13 121 12.7
2004-08-25 12:45:09 51°18.344 2°50.058 120.7 13.2 121 14.1
2004-08-25 12:46:09 51°18.226 2°50.356 121.3 13.1 123 13.8
2004-08-25 12:47:10 51°18.107 2°50.661 119.4 13.4 120 12.7
2004-08-25 12:48:09 51°17.994 2°50.957 118.3 13.3 120 12
2004-08-25 12:49:09 51°17.879 2°51.258 121.1 13.5 122 10.4
2004-08-25 12:50:10 51°17.762 2°51.562 119 13 123 9.8
2004-08-25 12:51:10 51°17.614 2°51.825 133 13.5 132 9.8
2004-08-25 12:52:09 51°17.46 2°52.077 137.1 13.5 142 10
2004-08-25 12:53:09 51°17.273 2°52.275 145.8 13.4 147 10.1
2004-08-25 12:54:09 51°17.088 2°52.479 142.8 12.4 143 9.5
2004-08-25 12:55:09 51°16.955 2°52.605 156 7.7 160 9.9
2004-08-25 12:56:09 51°16.845 2°52.646 170.5 6.2 168 9.5
2004-08-25 12:57:09 51°16.748 2°52.671 173.6 5.8 170 9.6
2004-08-25 12:58:08 51°16.657 2°52.688 174.3 5.6 174 11
2004-08-25 12:59:13 51°16.556 2°52.715 166.6 5.6 166 11.4
2004-08-25 13:00:13 51°16.464 2°52.749 165.6 5.7 167 11.9
2004-08-25 13:01:13 51°16.373 2°52.786 165.6 5.6 165 12.2
2004-08-25 13:02:13 51°16.282 2°52.818 166.6 5.6 167 12.3
2004-08-25 13:03:13 51°16.191 2°52.853 165.4 5.6 166 12.4
2004-08-25 13:04:13 51°16.099 2°52.887 164.7 5.6 168 12.2
2004-08-25 13:05:13 51°16.007 2°52.92 165.2 5.7 166 12.1
2004-08-25 13:06:13 51°15.915 2°52.955 165.1 5.5 165 12.1
2004-08-25 13:07:13 51°15.824 2°52.993 161.5 5.6 163 11.7
2004-08-25 13:08:13 51°15.743 2°53.03 163.5 4.4 166 11.6
2004-08-25 13:09:15 51°15.674 2°53.053 164.2 3.8 168 11.4
2004-08-25 13:10:15 51°15.618 2°53.081 155.5 3.4 161 11.4
2004-08-25 13:11:15 51°15.566 2°53.114 152.4 3.4 158 11.1
2004-08-25 13:12:14 51°15.516 2°53.148 152.4 3.3 154 11.1
2004-08-25 13:13:15 51°15.465 2°53.182 152.4 3.2 156 10.9
2004-08-25 13:14:14 51°15.415 2°53.213 155.8 3.2 159 10.8
2004-08-25 13:15:13 51°15.365 2°53.241 158.1 3.3 162 10.7
2004-08-25 13:16:15 51°15.311 2°53.269 158.3 3.3 160 10.5
2004-08-25 13:17:15 51°15.262 2°53.302 149.6 3.2 152 10.2
2004-08-25 13:18:15 51°15.215 2°53.347 141.5 3.3 145 10.2
2004-08-25 13:19:21 51°15.165 2°53.402 142.6 3.4 146 9.8
2004-08-25 13:20:17 51°15.121 2°53.445 145.8 3.4 149 9.7
2004-08-25 13:21:20 51°15.07 2°53.492 147.3 3.3 150 9.7
2004-08-25 13:22:25 51°15.021 2°53.543 142.5 3.4 145 9.7
2004-08-25 13:23:25 51°14.954 2°53.651 127.7 8.8 126 9.6
2004-08-25 13:24:25 51°14.852 2°53.891 123.5 11.5 123 9.4
2004-08-25 13:25:25 51°14.743 2°54.148 124.2 11.7 126 9.8
2004-08-25 13:26:30 51°14.626 2°54.43 121 11.6 122 9.9
2004-08-25 13:27:30 51°14.519 2°54.688 123.8 11.6 124 10.3
2004-08-25 13:28:30 51°14.409 2°54.95 122.8 11.7 122 10.7